createdAt,value
2023-05-01T00:00:42.294Z,101695.44
2023-05-01T00:03:04.000Z,101688.78
2023-05-01T00:05:25.672Z,101690.75
2023-05-01T00:07:47.300Z,101687.13
2023-05-01T00:10:09.031Z,101679.31
2023-05-01T00:12:30.993Z,101676.56
2023-05-01T00:14:54.369Z,101671.03
2023-05-01T00:17:16.438Z,101665.84
2023-05-01T00:19:38.092Z,101666.66
2023-05-01T00:21:59.893Z,101663.09
2023-05-01T00:24:21.778Z,101661.44
2023-05-01T00:26:43.922Z,101654.78
2023-05-01T00:29:05.566Z,101652.81
2023-05-01T00:31:27.248Z,101653.13
2023-05-01T00:33:48.978Z,101649.88
2023-05-01T00:36:11.404Z,101651.84
2023-05-01T00:38:33.038Z,101644.34
2023-05-01T00:40:54.744Z,101643.22
2023-05-01T00:43:16.376Z,101643.72
2023-05-01T00:45:39.572Z,101640.28
2023-05-01T00:48:01.300Z,101639.97
2023-05-01T00:50:23.113Z,101634.56
2023-05-01T00:52:46.149Z,101627.56
2023-05-01T00:55:08.565Z,101622.84
2023-05-01T00:57:30.478Z,101627.72
2023-05-01T00:59:52.327Z,101627.06
2023-05-01T01:02:15.261Z,101629.03
2023-05-01T01:04:37.134Z,101616.00
2023-05-01T01:07:21.662Z,101612.75
2023-05-01T01:10:05.324Z,101603.97
2023-05-01T01:12:46.417Z,101594.53
2023-05-01T01:15:27.205Z,101598.09
2023-05-01T01:18:06.325Z,101595.03
2023-05-01T01:20:50.080Z,101598.78
2023-05-01T01:23:46.083Z,101601.41
2023-05-01T01:26:46.092Z,101596.41
2023-05-01T01:29:39.138Z,101583.56
2023-05-01T01:32:38.576Z,101587.63
2023-05-01T01:35:06.680Z,101580.97
2023-05-01T01:37:56.348Z,101578.09
2023-05-01T01:40:25.633Z,101574.34
2023-05-01T01:43:03.322Z,101579.06
2023-05-01T01:45:43.531Z,101568.66
2023-05-01T01:48:11.534Z,101562.66
2023-05-01T01:50:37.183Z,101562.31
2023-05-01T01:53:02.209Z,101556.63
2023-05-01T01:55:30.364Z,101550.31
2023-05-01T01:57:53.819Z,101553.06
2023-05-01T02:00:16.519Z,101555.00
2023-05-01T02:02:41.817Z,101552.22
2023-05-01T02:05:07.026Z,101554.19
2023-05-01T02:07:29.767Z,101551.09
2023-05-01T02:09:55.231Z,101547.34
2023-05-01T02:12:19.781Z,101544.25
2023-05-01T02:14:44.173Z,101537.59
2023-05-01T02:17:06.911Z,101538.09
2023-05-01T02:19:29.906Z,101524.25
2023-05-01T02:21:55.895Z,101524.72
2023-05-01T02:24:22.583Z,101517.25
2023-05-01T02:26:55.306Z,101525.88
2023-05-01T02:29:17.011Z,101522.13
2023-05-01T02:31:38.857Z,101518.75
2023-05-01T02:34:00.812Z,101524.13
2023-05-01T02:36:22.453Z,101522.50
2023-05-01T02:38:47.009Z,101515.34
2023-05-01T02:41:11.537Z,101519.59
2023-05-01T02:43:36.666Z,101511.94
2023-05-01T02:45:59.845Z,101521.69
2023-05-01T02:48:28.523Z,101512.97
2023-05-01T02:50:52.153Z,101508.56
2023-05-01T02:53:15.708Z,101504.97
2023-05-01T02:55:46.360Z,101500.13
2023-05-01T02:58:08.188Z,101495.56
2023-05-01T03:00:29.970Z,101500.78
2023-05-01T03:02:51.665Z,101491.03
2023-05-01T03:05:13.923Z,101497.22
2023-05-01T03:07:35.854Z,101486.84
2023-05-01T03:09:57.682Z,101486.84
2023-05-01T03:12:19.398Z,101485.69
2023-05-01T03:14:41.132Z,101485.38
2023-05-01T03:17:03.286Z,101484.56
2023-05-01T03:19:24.895Z,101477.09
2023-05-01T03:21:46.501Z,101480.16
2023-05-01T03:24:08.324Z,101484.56
2023-05-01T03:26:30.113Z,101475.00
2023-05-01T03:28:51.899Z,101472.38
2023-05-01T03:31:14.314Z,101476.16
2023-05-01T03:33:36.035Z,101462.97
2023-05-01T03:36:06.033Z,101459.56
2023-05-01T03:38:29.471Z,101461.31
2023-05-01T03:41:06.194Z,101454.03
2023-05-01T03:43:57.027Z,101446.88
2023-05-01T03:46:27.358Z,101449.16
2023-05-01T03:48:49.077Z,101438.13
2023-05-01T03:51:10.900Z,101444.44
2023-05-01T03:53:33.079Z,101436.16
2023-05-01T03:55:57.833Z,101440.88
2023-05-01T03:58:19.709Z,101440.88
2023-05-01T04:00:41.783Z,101445.28
2023-05-01T04:03:05.303Z,101444.44
2023-05-01T04:05:30.473Z,101440.88
2023-05-01T04:07:57.036Z,101442.16
2023-05-01T04:10:18.872Z,101437.44
2023-05-01T04:12:48.989Z,101430.31
2023-05-01T04:15:11.488Z,101436.50
2023-05-01T04:17:36.257Z,101436.31
2023-05-01T04:19:58.309Z,101433.91
2023-05-01T04:22:21.369Z,101435.84
2023-05-01T04:24:43.027Z,101427.56
2023-05-01T04:27:05.844Z,101434.72
2023-05-01T04:29:27.558Z,101432.94
2023-05-01T04:31:49.364Z,101431.47
2023-05-01T04:34:11.089Z,101420.88
2023-05-01T04:36:33.301Z,101425.78
2023-05-01T04:38:55.377Z,101422.06
2023-05-01T04:41:17.186Z,101418.16
2023-05-01T04:43:40.040Z,101412.78
2023-05-01T04:46:06.249Z,101415.38
2023-05-01T04:48:27.989Z,101415.22
2023-05-01T04:50:49.638Z,101413.38
2023-05-01T04:53:11.908Z,101422.16
2023-05-01T04:55:35.951Z,101411.91
2023-05-01T04:58:03.852Z,101417.94
2023-05-01T05:00:28.044Z,101420.50
2023-05-01T05:02:52.092Z,101417.09
2023-05-01T05:05:13.840Z,101423.56
2023-05-01T05:07:35.643Z,101414.97
2023-05-01T05:10:15.940Z,101415.44
2023-05-01T05:12:43.906Z,101422.09
2023-05-01T05:15:06.652Z,101414.66
2023-05-01T05:17:28.713Z,101415.09
2023-05-01T05:19:50.590Z,101417.06
2023-05-01T05:22:12.723Z,101414.28
2023-05-01T05:24:57.503Z,101419.81
2023-05-01T05:27:19.248Z,101422.59
2023-05-01T05:29:40.934Z,101425.50
2023-05-01T05:32:02.710Z,101429.56
2023-05-01T05:34:24.915Z,101424.97
2023-05-01T05:36:46.675Z,101440.91
2023-05-01T05:39:09.551Z,101441.38
2023-05-01T05:41:31.354Z,101445.28
2023-05-01T05:43:55.503Z,101437.00
2023-05-01T05:46:17.357Z,101428.88
2023-05-01T05:48:39.417Z,101439.59
2023-05-01T05:51:01.330Z,101437.16
2023-05-01T05:53:25.723Z,101430.16
2023-05-01T05:55:48.695Z,101435.03
2023-05-01T05:58:11.182Z,101433.06
2023-05-01T06:00:33.157Z,101434.84
2023-05-01T06:02:59.005Z,101424.75
2023-05-01T06:05:24.119Z,101423.88
2023-05-01T06:07:46.255Z,101420.59
2023-05-01T06:10:08.587Z,101423.97
2023-05-01T06:12:35.183Z,101429.31
2023-05-01T06:14:59.907Z,101412.88
2023-05-01T06:17:22.315Z,101421.63
2023-05-01T06:19:44.025Z,101418.19
2023-05-01T06:22:07.745Z,101417.19
2023-05-01T06:24:36.823Z,101413.41
2023-05-01T06:27:00.842Z,101407.81
2023-05-01T06:29:23.435Z,101418.88
2023-05-01T06:31:45.757Z,101413.41
2023-05-01T06:34:07.465Z,101412.13
2023-05-01T06:36:41.458Z,101410.06
2023-05-01T06:39:03.478Z,101411.75
2023-05-01T06:41:27.102Z,101404.50
2023-05-01T06:43:49.011Z,101409.97
2023-05-01T06:46:12.587Z,101409.88
2023-05-01T06:48:34.594Z,101409.44
2023-05-01T06:50:56.562Z,101407.28
2023-05-01T06:53:18.361Z,101412.59
2023-05-01T06:55:40.060Z,101402.44
2023-05-01T06:58:06.928Z,101410.88
2023-05-01T07:00:34.421Z,101404.06
2023-05-01T07:02:56.498Z,101403.16
2023-05-01T07:05:18.831Z,101400.06
2023-05-01T07:07:47.291Z,101405.94
2023-05-01T07:10:12.415Z,101407.44
2023-05-01T07:12:34.354Z,101400.19
2023-05-01T07:14:57.033Z,101402.53
2023-05-01T07:17:18.887Z,101400.41
2023-05-01T07:19:40.566Z,101401.47
2023-05-01T07:22:03.276Z,101400.88
2023-05-01T07:24:25.309Z,101397.06
2023-05-01T07:26:47.086Z,101393.69
2023-05-01T07:29:08.786Z,101395.06
2023-05-01T07:31:30.898Z,101391.22
2023-05-01T07:33:54.240Z,101397.38
2023-05-01T07:36:18.519Z,101402.66
2023-05-01T07:38:40.700Z,101404.81
2023-05-01T07:41:02.664Z,101390.34
2023-05-01T07:43:24.356Z,101390.69
2023-05-01T07:46:01.931Z,101385.31
2023-05-01T07:48:23.954Z,101394.53
2023-05-01T07:50:46.611Z,101390.00
2023-05-01T07:53:08.240Z,101398.94
2023-05-01T07:55:29.955Z,101392.84
2023-05-01T07:57:52.054Z,101396.28
2023-05-01T08:00:14.605Z,101399.25
2023-05-01T08:02:36.672Z,101393.06
2023-05-01T08:04:58.708Z,101401.13
2023-05-01T08:07:20.901Z,101398.19
2023-05-01T08:09:42.711Z,101401.50
2023-05-01T08:12:04.624Z,101398.44
2023-05-01T08:14:26.442Z,101399.16
2023-05-01T08:16:54.219Z,101394.69
2023-05-01T08:19:15.939Z,101394.50
2023-05-01T08:21:37.578Z,101384.34
2023-05-01T08:23:59.281Z,101386.41
2023-05-01T08:26:22.555Z,101384.31
2023-05-01T08:28:44.550Z,101385.50
2023-05-01T08:31:06.859Z,101383.31
2023-05-01T08:33:28.621Z,101386.56
2023-05-01T08:35:51.235Z,101382.75
2023-05-01T08:38:12.991Z,101388.47
2023-05-01T08:40:41.245Z,101390.16
2023-05-01T08:43:02.995Z,101386.34
2023-05-01T08:45:25.772Z,101387.25
2023-05-01T08:47:49.668Z,101390.38
2023-05-01T08:50:13.999Z,101389.06
2023-05-01T08:52:42.350Z,101386.72
2023-05-01T08:55:05.443Z,101385.75
2023-05-01T08:57:30.666Z,101386.94
2023-05-01T08:59:56.868Z,101383.38
2023-05-01T09:02:23.484Z,101386.13
2023-05-01T09:04:46.134Z,101378.94
2023-05-01T09:07:10.088Z,101381.78
2023-05-01T09:09:33.628Z,101373.78
2023-05-01T09:12:01.603Z,101374.50
2023-05-01T09:14:23.806Z,101374.03
2023-05-01T09:16:45.685Z,101373.53
2023-05-01T09:19:07.982Z,101377.41
2023-05-01T09:21:32.013Z,101378.00
2023-05-01T09:23:53.879Z,101380.91
2023-05-01T09:26:15.841Z,101382.19
2023-05-01T09:28:46.146Z,101379.41
2023-05-01T09:31:37.539Z,101373.06
2023-05-01T09:34:05.875Z,101373.00
2023-05-01T09:36:33.648Z,101376.56
2023-05-01T09:38:55.468Z,101376.16
2023-05-01T09:41:17.434Z,101375.28
2023-05-01T09:43:39.213Z,101373.72
2023-05-01T09:46:03.880Z,101371.63
2023-05-01T09:48:26.582Z,101363.69
2023-05-01T09:50:48.336Z,101367.69
2023-05-01T09:53:11.302Z,101361.75
2023-05-01T09:55:34.504Z,101365.38
2023-05-01T09:57:56.222Z,101371.09
2023-05-01T10:00:20.863Z,101373.50
2023-05-01T10:02:45.345Z,101373.00
2023-05-01T10:05:11.103Z,101370.84
2023-05-01T10:07:34.428Z,101377.28
2023-05-01T10:09:58.579Z,101377.81
2023-05-01T10:12:30.436Z,101376.66
2023-05-01T10:14:57.877Z,101374.81
2023-05-01T10:17:20.132Z,101376.94
2023-05-01T10:19:41.930Z,101372.19
2023-05-01T10:22:03.673Z,101366.25
2023-05-01T10:24:25.617Z,101361.53
2023-05-01T10:26:49.166Z,101364.75
2023-05-01T10:29:12.462Z,101364.09
2023-05-01T10:31:35.755Z,101369.78
2023-05-01T10:33:57.631Z,101358.63
2023-05-01T10:36:26.313Z,101363.47
2023-05-01T10:38:48.552Z,101362.25
2023-05-01T10:41:10.794Z,101361.88
2023-05-01T10:43:32.834Z,101366.34
2023-05-01T10:46:09.743Z,101358.47
2023-05-01T10:48:40.872Z,101364.50
2023-05-01T10:51:15.770Z,101368.91
2023-05-01T10:53:42.159Z,101361.28
2023-05-01T10:56:07.660Z,101352.88
2023-05-01T10:58:41.012Z,101352.88
2023-05-01T11:01:27.339Z,101349.69
2023-05-01T11:03:49.089Z,101348.50
2023-05-01T11:06:11.028Z,101339.69
2023-05-01T11:08:36.566Z,101342.50
2023-05-01T11:10:58.273Z,101345.31
2023-05-01T11:14:06.524Z,101338.94
2023-05-01T11:16:40.611Z,101335.72
2023-05-01T11:19:02.507Z,101334.09
2023-05-01T11:21:34.139Z,101335.31
2023-05-01T11:23:56.194Z,101338.88
2023-05-01T11:26:19.312Z,101343.25
2023-05-01T11:28:42.419Z,101340.41
2023-05-01T11:31:04.249Z,101348.41
2023-05-01T11:33:26.391Z,101337.19
2023-05-01T11:35:58.534Z,101341.97
2023-05-01T11:38:20.223Z,101337.53
2023-05-01T11:40:41.858Z,101332.31
2023-05-01T11:43:08.872Z,101335.06
2023-05-01T11:45:32.004Z,101335.03
2023-05-01T11:47:54.309Z,101337.00
2023-05-01T11:50:16.943Z,101337.44
2023-05-01T11:52:50.061Z,101333.50
2023-05-01T11:55:12.280Z,101334.31
2023-05-01T11:57:52.442Z,101339.22
2023-05-01T12:00:29.651Z,101341.28
2023-05-01T12:02:59.691Z,101333.28
2023-05-01T12:05:23.398Z,101324.50
2023-05-01T12:07:45.114Z,101329.72
2023-05-01T12:10:07.755Z,101330.56
2023-05-01T12:12:29.691Z,101335.31
2023-05-01T12:14:51.430Z,101338.50
2023-05-01T12:17:13.589Z,101345.28
2023-05-01T12:19:46.055Z,101340.75
2023-05-01T12:22:09.431Z,101342.69
2023-05-01T12:24:31.193Z,101336.59
2023-05-01T12:27:01.464Z,101338.16
2023-05-01T12:29:23.172Z,101344.13
2023-05-01T12:31:49.884Z,101344.81
2023-05-01T12:34:12.579Z,101335.22
2023-05-01T12:36:36.829Z,101338.50
2023-05-01T12:39:04.820Z,101352.28
2023-05-01T12:41:36.771Z,101344.31
2023-05-01T12:43:58.681Z,101350.31
2023-05-01T12:46:20.457Z,101349.06
2023-05-01T12:48:42.743Z,101350.19
2023-05-01T12:51:04.954Z,101351.03
2023-05-01T12:53:29.607Z,101357.84
2023-05-01T12:55:54.462Z,101352.66
2023-05-01T12:58:17.190Z,101353.84
2023-05-01T13:00:55.459Z,101353.41
2023-05-01T13:03:27.239Z,101348.56
2023-05-01T13:06:01.868Z,101351.31
2023-05-01T13:08:33.286Z,101353.31
2023-05-01T13:10:57.374Z,101352.59
2023-05-01T13:13:27.676Z,101346.22
2023-05-01T13:15:49.497Z,101357.13
2023-05-01T13:18:11.252Z,101349.94
2023-05-01T13:20:33.188Z,101349.97
2023-05-01T13:22:55.070Z,101353.19
2023-05-01T13:25:22.535Z,101355.25
2023-05-01T13:27:52.657Z,101369.69
2023-05-01T13:30:18.785Z,101358.84
2023-05-01T13:32:42.344Z,101360.50
2023-05-01T13:35:04.670Z,101356.13
2023-05-01T13:37:26.594Z,101360.91
2023-05-01T13:39:48.533Z,101374.56
2023-05-01T13:42:26.287Z,101378.56
2023-05-01T13:44:53.381Z,101377.72
2023-05-01T13:47:18.214Z,101384.50
2023-05-01T13:49:42.422Z,101385.25
2023-05-01T13:52:04.358Z,101382.03
2023-05-01T13:54:26.029Z,101375.97
2023-05-01T13:56:47.767Z,101376.38
2023-05-01T13:59:10.649Z,101374.81
2023-05-01T14:01:46.190Z,101386.44
2023-05-01T14:04:16.861Z,101381.63
2023-05-01T14:06:43.781Z,101385.63
2023-05-01T14:09:05.725Z,101388.38
2023-05-01T14:11:27.455Z,101393.06
2023-05-01T14:13:51.134Z,101391.78
2023-05-01T14:16:25.200Z,101398.53
2023-05-01T14:18:48.226Z,101389.31
2023-05-01T14:21:09.914Z,101401.72
2023-05-01T14:23:33.453Z,101381.78
2023-05-01T14:25:55.157Z,101389.81
2023-05-01T14:28:17.214Z,101385.72
2023-05-01T14:30:40.137Z,101393.13
2023-05-01T14:33:03.712Z,101384.25
2023-05-01T14:35:25.568Z,101378.97
2023-05-01T14:37:47.802Z,101378.03
2023-05-01T14:40:12.771Z,101379.94
2023-05-01T14:42:34.734Z,101374.28
2023-05-01T14:44:56.734Z,101381.03
2023-05-01T14:47:23.265Z,101378.16
2023-05-01T14:49:45.042Z,101383.25
2023-05-01T14:52:08.255Z,101389.50
2023-05-01T14:54:44.602Z,101388.56
2023-05-01T14:57:06.473Z,101397.97
2023-05-01T14:59:28.148Z,101389.09
2023-05-01T15:01:49.902Z,101398.22
2023-05-01T15:04:12.713Z,101396.91
2023-05-01T15:06:34.702Z,101407.97
2023-05-01T15:08:56.431Z,101419.91
2023-05-01T15:11:18.815Z,101419.03
2023-05-01T15:13:42.593Z,101416.00
2023-05-01T15:16:04.837Z,101429.06
2023-05-01T15:18:26.554Z,101421.66
2023-05-01T15:20:48.306Z,101431.09
2023-05-01T15:23:10.632Z,101431.00
2023-05-01T15:25:32.315Z,101430.13
2023-05-01T15:27:55.406Z,101426.84
2023-05-01T15:30:17.156Z,101427.97
2023-05-01T15:32:38.945Z,101425.19
2023-05-01T15:35:01.052Z,101436.69
2023-05-01T15:37:24.047Z,101439.94
2023-05-01T15:39:45.843Z,101445.88
2023-05-01T15:42:07.482Z,101444.63
2023-05-01T15:44:29.325Z,101450.09
2023-05-01T15:46:52.416Z,101451.13
2023-05-01T15:49:15.184Z,101460.63
2023-05-01T15:51:36.861Z,101458.94
2023-05-01T15:54:00.479Z,101454.91
2023-05-01T15:56:22.525Z,101459.69
2023-05-01T15:58:44.220Z,101458.75
2023-05-01T16:01:11.094Z,101466.22
2023-05-01T16:03:33.258Z,101467.31
2023-05-01T16:05:56.171Z,101466.53
2023-05-01T16:08:19.161Z,101476.44
2023-05-01T16:10:41.032Z,101474.44
2023-05-01T16:13:08.482Z,101471.00
2023-05-01T16:15:30.697Z,101474.38
2023-05-01T16:17:54.729Z,101458.44
2023-05-01T16:20:17.169Z,101465.28
2023-05-01T16:22:43.232Z,101463.38
2023-05-01T16:25:05.509Z,101468.78
2023-05-01T16:27:27.152Z,101462.16
2023-05-01T16:29:48.814Z,101464.66
2023-05-01T16:32:11.387Z,101464.06
2023-05-01T16:34:33.351Z,101464.97
2023-05-01T16:36:56.434Z,101466.97
2023-05-01T16:39:21.789Z,101462.22
2023-05-01T16:41:52.237Z,101475.09
2023-05-01T16:44:16.326Z,101471.44
2023-05-01T16:46:41.917Z,101480.97
2023-05-01T16:49:04.840Z,101482.22
2023-05-01T16:51:26.470Z,101489.09
2023-05-01T16:53:48.156Z,101493.16
2023-05-01T16:56:10.217Z,101486.63
2023-05-01T16:58:32.151Z,101492.09
2023-05-01T17:00:55.827Z,101496.22
2023-05-01T17:03:17.601Z,101497.59
2023-05-01T17:05:39.309Z,101494.56
2023-05-01T17:08:00.941Z,101494.75
2023-05-01T17:10:22.557Z,101497.91
2023-05-01T17:12:44.528Z,101494.38
2023-05-01T17:15:07.133Z,101497.91
2023-05-01T17:17:28.872Z,101507.44
2023-05-01T17:19:51.167Z,101502.75
2023-05-01T17:22:14.007Z,101502.75
2023-05-01T17:24:36.578Z,101505.22
2023-05-01T17:26:59.068Z,101502.59
2023-05-01T17:29:20.826Z,101503.16
2023-05-01T17:31:42.504Z,101500.72
2023-05-01T17:34:04.190Z,101507.56
2023-05-01T17:36:25.917Z,101508.34
2023-05-01T17:38:48.480Z,101509.69
2023-05-01T17:41:10.589Z,101510.47
2023-05-01T17:43:32.221Z,101510.28
2023-05-01T17:45:54.244Z,101513.28
2023-05-01T17:48:16.111Z,101518.75
2023-05-01T17:50:37.824Z,101524.47
2023-05-01T17:52:59.488Z,101530.34
2023-05-01T17:55:21.216Z,101527.09
2023-05-01T17:57:42.895Z,101533.88
2023-05-01T18:00:07.403Z,101525.06
2023-05-01T18:02:34.491Z,101525.97
2023-05-01T18:04:56.315Z,101537.25
2023-05-01T18:07:18.011Z,101540.59
2023-05-01T18:09:39.630Z,101540.88
2023-05-01T18:12:02.224Z,101541.03
2023-05-01T18:14:25.002Z,101547.56
2023-05-01T18:16:46.690Z,101549.25
2023-05-01T18:19:08.454Z,101550.97
2023-05-01T18:21:30.521Z,101559.38
2023-05-01T18:23:52.177Z,101552.56
2023-05-01T18:26:13.932Z,101552.25
2023-05-01T18:28:35.561Z,101564.75
2023-05-01T18:30:57.538Z,101569.53
2023-05-01T18:33:19.426Z,101571.88
2023-05-01T18:35:42.543Z,101578.00
2023-05-01T18:38:04.177Z,101573.38
2023-05-01T18:40:27.058Z,101580.72
2023-05-01T18:42:48.727Z,101582.88
2023-05-01T18:45:10.757Z,101582.09
2023-05-01T18:47:32.717Z,101591.88
2023-05-01T18:49:54.399Z,101596.06
2023-05-01T18:52:16.022Z,101595.44
2023-05-01T18:54:37.709Z,101603.56
2023-05-01T18:56:59.404Z,101596.63
2023-05-01T18:59:22.057Z,101604.31
2023-05-01T19:01:43.998Z,101611.75
2023-05-01T19:04:06.658Z,101624.25
2023-05-01T19:06:28.920Z,101624.84
2023-05-01T19:08:50.651Z,101625.53
2023-05-01T19:11:13.157Z,101621.84
2023-05-01T19:13:34.779Z,101620.94
2023-05-01T19:15:56.455Z,101625.09
2023-05-01T19:18:18.252Z,101631.34
2023-05-01T19:20:39.974Z,101626.34
2023-05-01T19:23:01.628Z,101636.56
2023-05-01T19:25:24.329Z,101637.13
2023-05-01T19:27:46.022Z,101637.38
2023-05-01T19:30:08.617Z,101648.25
2023-05-01T19:32:30.350Z,101650.09
2023-05-01T19:34:52.062Z,101661.88
2023-05-01T19:37:13.664Z,101655.41
2023-05-01T19:39:35.548Z,101661.97
2023-05-01T19:41:58.819Z,101662.56
2023-05-01T19:44:20.979Z,101665.69
2023-05-01T19:46:42.677Z,101666.25
2023-05-01T19:49:04.418Z,101679.31
2023-05-01T19:51:26.393Z,101677.22
2023-05-01T19:53:48.079Z,101671.19
2023-05-01T19:56:10.285Z,101679.97
2023-05-01T19:58:32.419Z,101678.22
2023-05-01T20:00:58.255Z,101680.38
2023-05-01T20:03:20.041Z,101681.75
2023-05-01T20:05:41.781Z,101677.22
2023-05-01T20:08:04.771Z,101679.88
2023-05-01T20:10:27.386Z,101694.28
2023-05-01T20:12:49.100Z,101693.19
2023-05-01T20:15:12.008Z,101709.56
2023-05-01T20:17:34.198Z,101707.66
2023-05-01T20:19:56.236Z,101713.56
2023-05-01T20:22:18.046Z,101707.41
2023-05-01T20:24:40.519Z,101716.38
2023-05-01T20:27:04.288Z,101718.22
2023-05-01T20:29:26.876Z,101720.03
2023-05-01T20:31:51.386Z,101722.31
2023-05-01T20:34:12.997Z,101733.13
2023-05-01T20:36:34.620Z,101721.28
2023-05-01T20:38:57.834Z,101725.41
2023-05-01T20:41:19.535Z,101737.81
2023-05-01T20:43:41.211Z,101732.13
2023-05-01T20:46:03.812Z,101730.34
2023-05-01T20:48:25.877Z,101746.34
2023-05-01T20:50:49.651Z,101740.66
2023-05-01T20:53:11.293Z,101749.16
2023-05-01T20:55:32.906Z,101743.81
2023-05-01T20:57:54.554Z,101748.38
2023-05-01T21:00:17.386Z,101752.63
2023-05-01T21:02:41.079Z,101743.50
2023-05-01T21:05:02.731Z,101747.25
2023-05-01T21:07:24.428Z,101749.41
2023-05-01T21:09:47.471Z,101745.81
2023-05-01T21:12:09.090Z,101748.09
2023-05-01T21:14:30.910Z,101743.56
2023-05-01T21:16:52.891Z,101748.13
2023-05-01T21:19:15.134Z,101747.97
2023-05-01T21:21:38.214Z,101743.25
2023-05-01T21:23:59.864Z,101741.94
2023-05-01T21:26:22.760Z,101733.44
2023-05-01T21:28:44.528Z,101752.38
2023-05-01T21:31:06.281Z,101758.88
2023-05-01T21:33:28.412Z,101760.34
2023-05-01T21:35:50.095Z,101766.53
2023-05-01T21:38:12.460Z,101766.06
2023-05-01T21:40:41.261Z,101765.41
2023-05-01T21:43:03.005Z,101773.06
2023-05-01T21:45:24.669Z,101776.31
2023-05-01T21:47:51.088Z,101778.25
2023-05-01T21:50:16.317Z,101787.56
2023-05-01T21:52:38.959Z,101788.34
2023-05-01T21:55:09.718Z,101797.94
2023-05-01T21:57:31.899Z,101798.13
2023-05-01T21:59:56.665Z,101794.34
2023-05-01T22:02:18.594Z,101788.66
2023-05-01T22:04:40.710Z,101795.31
2023-05-01T22:07:02.328Z,101793.72
2023-05-01T22:09:24.010Z,101791.25
2023-05-01T22:11:45.592Z,101792.72
2023-05-01T22:14:07.301Z,101795.28
2023-05-01T22:16:28.984Z,101796.59
2023-05-01T22:18:50.713Z,101804.22
2023-05-01T22:21:12.347Z,101798.72
2023-05-01T22:23:34.061Z,101795.94
2023-05-01T22:25:59.974Z,101798.88
2023-05-01T22:28:22.764Z,101807.31
2023-05-01T22:30:44.819Z,101801.78
2023-05-01T22:33:06.685Z,101807.63
2023-05-01T22:35:28.347Z,101804.03
2023-05-01T22:37:50.020Z,101807.97
2023-05-01T22:40:12.075Z,101806.81
2023-05-01T22:42:33.742Z,101815.91
2023-05-01T22:44:55.669Z,101804.34
2023-05-01T22:47:17.545Z,101812.34
2023-05-01T22:49:39.275Z,101812.34
2023-05-01T22:52:01.047Z,101825.03
2023-05-01T22:54:23.035Z,101835.75
2023-05-01T22:56:46.095Z,101838.84
2023-05-01T22:59:07.834Z,101839.66
2023-05-01T23:01:29.779Z,101839.00
2023-05-01T23:03:51.467Z,101849.75
2023-05-01T23:06:13.377Z,101850.22
2023-05-01T23:08:35.102Z,101838.22
2023-05-01T23:10:56.866Z,101850.25
2023-05-01T23:13:22.719Z,101854.34
2023-05-01T23:15:47.202Z,101852.88
2023-05-01T23:18:09.284Z,101851.41
2023-05-01T23:20:30.990Z,101870.09
2023-05-01T23:22:53.283Z,101868.50
2023-05-01T23:25:22.877Z,101871.25
2023-05-01T23:27:51.427Z,101869.16
2023-05-01T23:30:13.960Z,101869.47
2023-05-01T23:32:35.647Z,101880.00
2023-05-01T23:35:11.647Z,101880.34
2023-05-01T23:37:33.319Z,101877.59
2023-05-01T23:39:55.230Z,101888.94
2023-05-01T23:42:17.759Z,101891.06
2023-05-01T23:44:39.478Z,101891.88
2023-05-01T23:47:01.366Z,101891.56
2023-05-01T23:49:23.270Z,101886.84
2023-05-01T23:51:45.084Z,101879.06
2023-05-01T23:54:07.292Z,101895.13
2023-05-01T23:56:28.907Z,101889.59
2023-05-01T23:58:50.600Z,101891.25
